Oil Finn — OJ9326 — position and weather

sailwx.info

Track history (hours):
 
Tides and Currents Weather Stations Pressure Air Temp Water Temp Dewpoint Dewpoint Depression Visibility Wind Speed Wind Dir Waves Ship Positions

Oil Finn

Last reported at 2017-May-18 06:07 UTC. Time now 2017-May-24 17:47 UTC.
Position N 60°15' E 026°02'.

Length 20 m; draft 2 m.

Type: Tanker. MMSI: 230033790.

Date/timePositionNaut miles runAvg speedWind from/ knotsBaromVisibWave heightAir tempDewpointWater temp
2017-May-18 06:07N 60°15' E 026°02'3 6.6
2017-May-18 05:42N 60°16' E 026°07'3 6.9
2017-May-18 05:15N 60°16' E 026°14'2 6.9
2017-May-18 05:00N 60°17' E 026°17'3 6.5
2017-May-18 04:30N 60°18' E 026°23'2 0.2
2017-May-17 14:57N 60°17' E 026°27'2 5.5
2017-May-17 14:30N 60°19' E 026°28'2 2.4
2017-May-17 13:30N 60°20' E 026°33'3 6.7
2017-May-17 13:00N 60°20' E 026°40'3 6.8
2017-May-17 12:30N 60°20' E 026°46'1 1.2
2017-May-17 12:00N 60°21' E 026°48'3 6.7
2017-May-17 11:30N 60°20' E 026°54'3 6.6
2017-May-17 11:00N 60°19' E 027°01'3 6.6
2017-May-17 10:30N 60°18' E 027°07'3 2.3
2017-May-17 09:23N 60°17' E 027°12'0 0.8
2017-May-17 09:00N 60°17' E 027°11'0 0.0
2017-May-17 08:30N 60°17' E 027°11'0 0.0
2017-May-17 08:01N 60°17' E 027°11'2 4.6
2017-May-17 07:30N 60°18' E 027°07'3 6.3
2017-May-17 07:00N 60°19' E 027°01'3 6.4
2017-May-17 06:30N 60°20' E 026°55'3 6.4
2017-May-17 06:00N 60°21' E 026°48'3 6.1
2017-May-17 05:30N 60°20' E 026°42'3 6.6
2017-May-17 05:00N 60°19' E 026°36'3 6.5
2017-May-17 04:30N 60°18' E 026°30'2 0.1
2017-May-16 13:42N 60°17' E 026°27'0 0.0
2017-May-16 13:30N 60°17' E 026°27'1 2.9
2017-May-16 13:00N 60°17' E 026°24'3 5.8
2017-May-16 12:29N 60°17' E 026°18'4 6.2
2017-May-16 11:47N 60°16' E 026°10'4 6.1
2017-May-16 11:05N 60°15' E 026°01'  
Track history (hours):
 
Tides and Currents Weather Stations Pressure Air Temp Water Temp Dewpoint Dewpoint Depression Visibility Wind Speed Wind Dir Waves Ship Positions

Oil Finn

Last reported at 2017-May-18 06:07 UTC. Time now 2017-May-24 17:47 UTC.
Position N 60°15' E 026°02'.

Length 20 m; draft 2 m.

Type: Tanker. MMSI: 230033790.

Date/timePositionNaut miles runAvg speedWind from/ knotsBaromVisibWave heightAir tempDewpointWater temp
2017-May-18 06:07N 60°15' E 026°02'3 6.6
2017-May-18 05:42N 60°16' E 026°07'3 6.9
2017-May-18 05:15N 60°16' E 026°14'2 6.9
2017-May-18 05:00N 60°17' E 026°17'3 6.5
2017-May-18 04:30N 60°18' E 026°23'2 0.2
2017-May-17 14:57N 60°17' E 026°27'2 5.5
2017-May-17 14:30N 60°19' E 026°28'2 2.4
2017-May-17 13:30N 60°20' E 026°33'3 6.7
2017-May-17 13:00N 60°20' E 026°40'3 6.8
2017-May-17 12:30N 60°20' E 026°46'1 1.2
2017-May-17 12:00N 60°21' E 026°48'3 6.7
2017-May-17 11:30N 60°20' E 026°54'3 6.6
2017-May-17 11:00N 60°19' E 027°01'3 6.6
2017-May-17 10:30N 60°18' E 027°07'3 2.3
2017-May-17 09:23N 60°17' E 027°12'0 0.8
2017-May-17 09:00N 60°17' E 027°11'0 0.0
2017-May-17 08:30N 60°17' E 027°11'0 0.0
2017-May-17 08:01N 60°17' E 027°11'2 4.6
2017-May-17 07:30N 60°18' E 027°07'3 6.3
2017-May-17 07:00N 60°19' E 027°01'3 6.4
2017-May-17 06:30N 60°20' E 026°55'3 6.4
2017-May-17 06:00N 60°21' E 026°48'3 6.1
2017-May-17 05:30N 60°20' E 026°42'3 6.6
2017-May-17 05:00N 60°19' E 026°36'3 6.5
2017-May-17 04:30N 60°18' E 026°30'2 0.1
2017-May-16 13:42N 60°17' E 026°27'0 0.0
2017-May-16 13:30N 60°17' E 026°27'1 2.9
2017-May-16 13:00N 60°17' E 026°24'3 5.8
2017-May-16 12:29N 60°17' E 026°18'4 6.2
2017-May-16 11:47N 60°16' E 026°10'4 6.1
2017-May-16 11:05N 60°15' E 026°01'  

Dump ship's entire track history